createdAt,value
2022-10-23T00:01:48.420Z,24.30
2022-10-23T00:04:19.431Z,23.20
2022-10-23T00:06:49.274Z,23.50
2022-10-23T00:09:23.248Z,24.00
2022-10-23T00:11:53.325Z,23.80
2022-10-23T00:14:24.565Z,22.90
2022-10-23T00:16:53.084Z,21.80
2022-10-23T00:19:21.257Z,22.60
2022-10-23T00:21:49.509Z,23.00
2022-10-23T00:24:17.935Z,23.70
2022-10-23T00:26:46.142Z,23.30
2022-10-23T00:29:14.404Z,24.00
2022-10-23T00:31:42.680Z,24.20
2022-10-23T00:34:11.200Z,24.40
2022-10-23T00:36:39.636Z,25.00
2022-10-23T00:39:08.022Z,26.40
2022-10-23T00:41:36.264Z,26.50
2022-10-23T00:44:29.518Z,28.00
2022-10-23T00:46:59.274Z,25.90
2022-10-23T00:49:28.442Z,25.90
2022-10-23T00:52:01.539Z,25.80
2022-10-23T00:54:33.674Z,25.70
2022-10-23T00:57:04.510Z,28.00
2022-10-23T00:59:33.604Z,26.80
2022-10-23T01:02:02.691Z,25.80
2022-10-23T01:04:31.270Z,27.00
2022-10-23T01:06:59.470Z,24.70
2022-10-23T01:09:59.803Z,26.80
2022-10-23T01:12:49.798Z,24.70
2022-10-23T01:15:28.671Z,23.90
2022-10-23T01:18:22.207Z,25.50
2022-10-23T01:21:06.140Z,24.70
2022-10-23T01:23:59.111Z,23.50
2022-10-23T01:26:44.396Z,23.30
2022-10-23T01:29:40.109Z,22.90
2022-10-23T01:32:16.818Z,23.00
2022-10-23T01:34:51.970Z,24.00
2022-10-23T01:37:29.597Z,23.70
2022-10-23T01:40:30.509Z,22.90
2022-10-23T01:43:06.869Z,22.80
2022-10-23T01:45:45.955Z,24.20
2022-10-23T01:48:22.091Z,20.60
2022-10-23T01:50:53.451Z,21.40
2022-10-23T01:53:22.745Z,22.80
2022-10-23T01:55:51.967Z,23.00
2022-10-23T01:58:26.598Z,22.90
2022-10-23T02:00:59.459Z,22.40
2022-10-23T02:03:31.689Z,22.40
2022-10-23T02:06:00.185Z,20.30
2022-10-23T02:08:28.610Z,20.60
2022-10-23T02:11:17.398Z,21.80
2022-10-23T02:13:52.489Z,19.60
2022-10-23T02:16:42.407Z,20.60
2022-10-23T02:19:33.725Z,20.10
2022-10-23T02:22:12.602Z,18.40
2022-10-23T02:25:05.015Z,19.60
2022-10-23T02:27:42.678Z,17.30
2022-10-23T02:30:16.711Z,16.20
2022-10-23T02:32:52.752Z,16.80
2022-10-23T02:35:24.309Z,15.80
2022-10-23T02:38:50.380Z,17.70
2022-10-23T02:41:41.915Z,15.90
2022-10-23T02:44:50.981Z,15.80
2022-10-23T02:51:13.119Z,15.40
2022-10-23T02:54:06.318Z,15.00
2022-10-23T02:56:51.192Z,15.30
2022-10-23T02:59:25.692Z,15.20
2022-10-23T03:02:15.211Z,14.90
2022-10-23T03:04:44.296Z,15.10
2022-10-23T03:07:18.332Z,14.80
2022-10-23T03:09:46.718Z,14.90
2022-10-23T03:12:15.171Z,15.40
2022-10-23T03:14:43.363Z,15.70
2022-10-23T03:17:11.671Z,15.60
2022-10-23T03:19:39.939Z,15.30
2022-10-23T03:22:08.134Z,14.70
2022-10-23T03:24:36.513Z,14.70
2022-10-23T03:27:04.790Z,15.10
2022-10-23T03:29:33.560Z,15.50
2022-10-23T03:32:01.897Z,15.10
2022-10-23T03:34:30.268Z,14.90
2022-10-23T03:36:58.550Z,14.70
2022-10-23T03:39:27.022Z,15.30
2022-10-23T03:41:55.194Z,14.40
2022-10-23T03:44:23.441Z,14.30
2022-10-23T03:46:51.755Z,14.10
2022-10-23T03:49:20.032Z,13.00
2022-10-23T03:51:52.671Z,13.90
2022-10-23T03:54:27.535Z,12.00
2022-10-23T03:56:57.786Z,12.60
2022-10-23T03:59:27.850Z,12.10
2022-10-23T04:01:56.312Z,13.40
2022-10-23T04:04:25.721Z,11.80
2022-10-23T04:06:54.869Z,12.10
2022-10-23T04:09:23.630Z,12.20
2022-10-23T04:11:51.875Z,11.20
2022-10-23T04:14:20.134Z,11.30
2022-10-23T04:16:48.681Z,12.00
2022-10-23T04:19:17.346Z,12.20
2022-10-23T04:21:45.666Z,10.90
2022-10-23T04:24:14.210Z,11.40
2022-10-23T04:26:42.446Z,11.00
2022-10-23T04:29:12.067Z,10.40
2022-10-23T04:31:40.254Z,11.50
2022-10-23T04:34:08.533Z,10.40
2022-10-23T04:36:37.194Z,11.40
2022-10-23T04:39:11.240Z,10.20
2022-10-23T04:41:39.531Z,10.00
2022-10-23T04:44:08.002Z,9.90
2022-10-23T04:46:39.485Z,10.60
2022-10-23T04:49:08.283Z,10.70
2022-10-23T04:52:11.641Z,9.30
2022-10-23T04:55:07.625Z,9.50
2022-10-23T04:58:05.899Z,9.00
2022-10-23T05:00:34.290Z,9.60
2022-10-23T05:03:02.833Z,10.00
2022-10-23T05:05:38.848Z,9.80
2022-10-23T05:08:27.438Z,10.00
2022-10-23T05:11:14.225Z,9.00
2022-10-23T05:13:46.631Z,9.10
2022-10-23T05:16:36.538Z,9.60
2022-10-23T05:19:07.898Z,8.20
2022-10-23T05:21:37.153Z,9.40
2022-10-23T05:24:07.635Z,9.30
2022-10-23T05:26:36.116Z,8.60
2022-10-23T05:29:08.087Z,9.00
2022-10-23T05:31:36.736Z,8.50
2022-10-23T05:34:17.074Z,9.20
2022-10-23T05:36:47.353Z,9.00
2022-10-23T05:39:17.078Z,8.60
2022-10-23T05:41:45.883Z,9.20
2022-10-23T05:44:21.171Z,9.30
2022-10-23T05:46:49.366Z,8.90
2022-10-23T05:49:46.816Z,9.40
2022-10-23T05:52:33.437Z,8.80
2022-10-23T05:55:27.916Z,8.80
2022-10-23T05:58:13.832Z,8.70
2022-10-23T06:01:06.230Z,8.30
2022-10-23T06:03:46.569Z,8.20
2022-10-23T06:06:14.846Z,9.10
2022-10-23T06:08:49.317Z,10.20
2022-10-23T06:11:17.922Z,10.00
2022-10-23T06:16:24.766Z,9.50
2022-10-23T06:18:54.179Z,10.20
2022-10-23T06:21:22.449Z,10.60
2022-10-23T06:23:51.625Z,10.50
2022-10-23T06:26:51.937Z,9.20
2022-10-23T06:29:23.621Z,9.90
2022-10-23T06:31:52.067Z,10.70
2022-10-23T06:34:20.290Z,9.60
2022-10-23T06:36:48.708Z,8.40
2022-10-23T06:39:31.940Z,7.40
2022-10-23T06:42:12.152Z,7.80
2022-10-23T06:45:06.354Z,8.20
2022-10-23T06:47:54.063Z,7.20
2022-10-23T06:50:40.975Z,7.70
2022-10-23T06:53:13.435Z,6.90
2022-10-23T06:55:49.015Z,7.40
2022-10-23T06:58:19.870Z,7.50
2022-10-23T07:01:02.074Z,7.70
2022-10-23T07:03:30.560Z,8.90
2022-10-23T07:06:04.457Z,8.20
2022-10-23T07:09:24.769Z,7.70
2022-10-23T07:11:53.100Z,7.70
2022-10-23T07:14:25.387Z,7.80
2022-10-23T07:16:54.035Z,7.70
2022-10-23T07:19:22.694Z,7.80
2022-10-23T07:21:57.494Z,7.40
2022-10-23T07:25:04.320Z,7.80
2022-10-23T07:27:38.482Z,6.90
2022-10-23T07:30:09.175Z,7.60
2022-10-23T07:32:45.284Z,6.90
2022-10-23T07:37:51.560Z,8.00
2022-10-23T07:40:21.004Z,9.00
2022-10-23T07:42:50.154Z,9.10
2022-10-23T07:45:20.739Z,9.70
2022-10-23T07:47:52.476Z,8.50
2022-10-23T07:50:22.009Z,7.90
2022-10-23T07:52:55.215Z,6.80
2022-10-23T07:55:27.079Z,6.50
2022-10-23T07:57:59.959Z,5.70
2022-10-23T08:00:41.610Z,6.30
2022-10-23T08:03:17.942Z,6.40
2022-10-23T08:05:46.823Z,6.00
2022-10-23T08:08:15.491Z,8.20
2022-10-23T08:10:50.235Z,7.90
2022-10-23T08:13:23.241Z,7.10
2022-10-23T08:15:59.587Z,7.30
2022-10-23T08:18:51.899Z,5.80
2022-10-23T08:21:20.604Z,5.90
2022-10-23T08:23:50.186Z,6.00
2022-10-23T08:26:18.917Z,5.50
2022-10-23T08:28:47.182Z,5.20
2022-10-23T08:31:18.464Z,4.70
2022-10-23T08:34:01.709Z,5.10
2022-10-23T08:36:30.118Z,3.90
2022-10-23T08:38:59.115Z,4.40
2022-10-23T08:41:37.851Z,4.60
2022-10-23T08:44:50.359Z,3.90
2022-10-23T08:47:37.728Z,4.60
2022-10-23T08:50:36.142Z,3.60
2022-10-23T08:53:18.835Z,4.50
2022-10-23T08:56:11.527Z,4.90
2022-10-23T08:58:59.091Z,4.40
2022-10-23T09:01:30.365Z,4.50
2022-10-23T09:03:59.396Z,4.70
2022-10-23T09:06:34.562Z,3.70
2022-10-23T09:09:32.562Z,3.60
2022-10-23T09:12:09.608Z,3.80
2022-10-23T09:15:08.778Z,4.10
2022-10-23T09:17:41.381Z,4.10
2022-10-23T09:20:34.489Z,3.60
2022-10-23T09:23:17.084Z,3.80
2022-10-23T09:25:47.289Z,3.60
2022-10-23T09:28:24.790Z,3.90
2022-10-23T09:30:53.709Z,3.70
2022-10-23T09:33:22.387Z,3.90
2022-10-23T09:35:53.653Z,3.80
2022-10-23T09:38:50.386Z,3.70
2022-10-23T09:41:40.021Z,4.00
2022-10-23T09:44:08.293Z,4.10
2022-10-23T09:46:39.900Z,3.60
2022-10-23T09:49:20.311Z,3.20
2022-10-23T09:51:54.573Z,3.60
2022-10-23T09:54:26.198Z,3.90
2022-10-23T09:56:55.851Z,3.80
2022-10-23T09:59:28.924Z,3.40
2022-10-23T10:02:00.659Z,4.00
2022-10-23T10:04:42.027Z,3.60
2022-10-23T10:07:25.691Z,3.70
2022-10-23T10:09:58.298Z,3.50
2022-10-23T10:12:35.902Z,3.80
2022-10-23T10:15:20.149Z,3.00
2022-10-23T10:18:11.380Z,3.50
2022-10-23T10:20:42.525Z,3.20
2022-10-23T10:23:14.447Z,2.70
2022-10-23T10:26:10.010Z,3.10
2022-10-23T10:29:06.744Z,3.20
2022-10-23T10:31:44.148Z,3.20
2022-10-23T10:34:25.078Z,3.20
2022-10-23T10:36:56.187Z,3.30
2022-10-23T10:39:35.288Z,2.90
2022-10-23T10:42:58.766Z,3.20
2022-10-23T10:45:31.751Z,2.60
2022-10-23T10:48:20.308Z,3.20
2022-10-23T10:51:14.304Z,2.80
2022-10-23T10:53:54.940Z,2.60
2022-10-23T10:56:28.066Z,3.00
2022-10-23T10:59:17.372Z,3.20
2022-10-23T11:01:57.157Z,2.70
2022-10-23T11:04:46.062Z,2.90
2022-10-23T11:07:19.382Z,3.20
2022-10-23T11:09:48.343Z,2.60
2022-10-23T11:12:35.067Z,3.50
2022-10-23T11:15:03.832Z,4.00
2022-10-23T11:17:41.040Z,3.90
2022-10-23T11:20:34.645Z,4.10
2022-10-23T11:23:08.499Z,3.30
2022-10-23T11:25:44.081Z,3.30
2022-10-23T11:28:21.475Z,3.30
2022-10-23T11:31:16.420Z,3.20
2022-10-23T11:36:40.620Z,3.10
2022-10-23T11:39:27.599Z,3.50
2022-10-23T11:42:05.179Z,3.30
2022-10-23T11:44:45.749Z,2.70
2022-10-23T11:47:40.121Z,3.00
2022-10-23T11:50:08.966Z,2.70
2022-10-23T11:53:12.600Z,3.00
2022-10-23T11:55:56.604Z,2.40
2022-10-23T11:58:32.359Z,4.80
2022-10-23T12:01:15.907Z,8.60
2022-10-23T12:03:55.454Z,4.10
2022-10-23T12:06:32.155Z,4.70
2022-10-23T12:09:05.284Z,2.90
2022-10-23T12:11:47.847Z,3.60
2022-10-23T12:14:45.985Z,2.60
2022-10-23T12:18:30.318Z,2.40
2022-10-23T12:21:00.756Z,2.30
2022-10-23T12:23:45.856Z,3.00
2022-10-23T12:26:54.424Z,2.50
2022-10-23T12:29:44.546Z,2.90
2022-10-23T12:32:42.886Z,2.40
2022-10-23T12:35:17.619Z,2.20
2022-10-23T12:38:14.694Z,2.00
2022-10-23T12:40:51.824Z,2.50
2022-10-23T12:43:27.867Z,2.30
2022-10-23T12:46:22.123Z,2.10
2022-10-23T12:48:52.226Z,2.10
2022-10-23T12:51:26.314Z,2.10
2022-10-23T12:53:54.730Z,2.10
2022-10-23T12:56:29.426Z,2.00
2022-10-23T12:59:01.543Z,2.10
2022-10-23T13:01:33.194Z,2.00
2022-10-23T13:04:10.826Z,2.30
2022-10-23T13:06:40.546Z,2.50
2022-10-23T13:09:23.609Z,2.50
2022-10-23T13:12:33.587Z,2.50
2022-10-23T13:15:07.959Z,2.10
2022-10-23T13:18:02.531Z,2.40
2022-10-23T13:20:35.334Z,2.30
2022-10-23T13:23:18.433Z,2.30
2022-10-23T13:26:00.995Z,2.50
2022-10-23T13:28:32.282Z,2.50
2022-10-23T13:31:25.599Z,2.60
2022-10-23T13:34:00.357Z,2.70
2022-10-23T13:39:02.935Z,2.00
2022-10-23T13:41:45.927Z,2.70
2022-10-23T13:44:16.678Z,3.30
2022-10-23T13:46:52.148Z,2.60
2022-10-23T13:49:20.911Z,2.10
2022-10-23T13:51:55.632Z,2.50
2022-10-23T13:54:30.222Z,2.80
2022-10-23T13:56:58.560Z,2.70
2022-10-23T13:59:26.950Z,3.00
2022-10-23T14:01:55.460Z,2.60
2022-10-23T14:04:24.082Z,2.50
2022-10-23T14:06:58.608Z,2.40
2022-10-23T14:11:55.220Z,2.70
2022-10-23T14:14:24.470Z,2.80
2022-10-23T14:16:53.392Z,2.70
2022-10-23T14:19:21.809Z,4.90
2022-10-23T14:21:49.989Z,5.60
2022-10-23T14:24:18.254Z,5.90
2022-10-23T14:26:46.566Z,5.90
2022-10-23T14:29:21.327Z,9.20
2022-10-23T14:31:51.632Z,7.60
2022-10-23T14:34:19.910Z,7.60
2022-10-23T14:36:50.109Z,6.70
2022-10-23T14:39:19.413Z,7.60
2022-10-23T14:41:47.609Z,7.30
2022-10-23T14:44:15.895Z,11.90
2022-10-23T14:46:44.226Z,27.20
2022-10-23T14:49:12.479Z,28.80
2022-10-23T14:51:40.740Z,25.90
2022-10-23T14:54:09.335Z,35.40
2022-10-23T14:56:40.884Z,13.60
2022-10-23T14:59:10.913Z,19.00
2022-10-23T15:01:45.167Z,20.60
2022-10-23T15:04:16.076Z,18.90
2022-10-23T15:06:46.468Z,15.40
2022-10-23T15:09:15.031Z,12.60
2022-10-23T15:11:43.636Z,8.40
2022-10-23T15:14:12.774Z,6.70
2022-10-23T15:16:43.817Z,10.40
2022-10-23T15:19:18.160Z,10.30
2022-10-23T15:21:48.533Z,11.90
2022-10-23T15:24:18.298Z,8.60
2022-10-23T15:26:47.779Z,8.40
2022-10-23T15:29:16.372Z,39.50
2022-10-23T15:31:52.285Z,42.50
2022-10-23T15:34:23.666Z,37.00
2022-10-23T15:36:53.312Z,33.20
2022-10-23T15:39:25.039Z,23.90
2022-10-23T15:41:57.160Z,17.50
2022-10-23T15:44:27.593Z,12.90
2022-10-23T15:46:58.917Z,10.70
2022-10-23T15:49:32.044Z,9.30
2022-10-23T15:52:04.998Z,7.80
2022-10-23T15:54:33.338Z,7.10
2022-10-23T15:57:02.712Z,8.20
2022-10-23T15:59:32.354Z,7.70
2022-10-23T16:02:01.101Z,6.70
2022-10-23T16:04:30.204Z,7.20
2022-10-23T16:06:59.486Z,7.40
2022-10-23T16:09:27.920Z,15.60
2022-10-23T16:11:56.179Z,19.80
2022-10-23T16:14:24.438Z,17.70
2022-10-23T16:16:52.659Z,15.00
2022-10-23T16:19:21.081Z,11.80
2022-10-23T16:21:49.345Z,9.00
2022-10-23T16:24:17.590Z,9.00
2022-10-23T16:26:50.384Z,10.20
2022-10-23T16:29:19.792Z,9.90
2022-10-23T16:31:48.115Z,10.90
2022-10-23T16:34:16.708Z,10.90
2022-10-23T16:36:45.258Z,11.80
2022-10-23T16:39:15.941Z,14.50
2022-10-23T16:42:02.677Z,12.40
2022-10-23T16:45:04.236Z,12.00
2022-10-23T16:47:32.651Z,11.10
2022-10-23T16:50:01.160Z,10.40
2022-10-23T16:52:30.255Z,11.30
2022-10-23T16:54:58.435Z,11.60
2022-10-23T16:57:29.864Z,12.00
2022-10-23T16:59:58.223Z,12.10
2022-10-23T17:02:26.693Z,13.40
2022-10-23T17:04:55.099Z,17.40
2022-10-23T17:07:24.405Z,18.10
2022-10-23T17:09:52.840Z,16.60
2022-10-23T17:12:21.099Z,35.20
2022-10-23T17:14:49.502Z,18.40
2022-10-23T17:17:17.807Z,14.40
2022-10-23T17:19:46.748Z,12.80
2022-10-23T17:22:17.385Z,13.50
2022-10-23T17:24:48.753Z,12.90
2022-10-23T17:27:20.435Z,12.90
2022-10-23T17:29:48.758Z,12.20
2022-10-23T17:32:17.132Z,12.90
2022-10-23T17:34:46.665Z,19.70
2022-10-23T17:37:15.026Z,25.90
2022-10-23T17:39:43.858Z,27.10
2022-10-23T17:42:38.865Z,25.70
2022-10-23T17:45:08.899Z,31.30
2022-10-23T17:47:37.466Z,28.30
2022-10-23T17:50:09.588Z,47.00
2022-10-23T17:52:39.092Z,29.10
2022-10-23T17:55:08.138Z,28.30
2022-10-23T17:57:37.542Z,25.30
2022-10-23T18:00:06.446Z,26.10
2022-10-23T18:02:41.026Z,31.60
2022-10-23T18:05:09.666Z,32.60
2022-10-23T18:07:37.895Z,27.70
2022-10-23T18:10:06.497Z,22.20
2022-10-23T18:12:34.885Z,17.40
2022-10-23T18:15:04.599Z,19.60
2022-10-23T18:17:33.019Z,31.30
2022-10-23T18:20:02.344Z,39.80
2022-10-23T18:22:33.249Z,24.10
2022-10-23T18:25:02.820Z,19.60
2022-10-23T18:27:33.189Z,20.90
2022-10-23T18:30:02.386Z,24.70
2022-10-23T18:32:32.168Z,80.90
2022-10-23T18:35:01.494Z,42.20
2022-10-23T18:37:31.826Z,27.20
2022-10-23T18:40:01.624Z,23.80
2022-10-23T18:42:30.397Z,23.80
2022-10-23T18:45:00.356Z,26.20
2022-10-23T18:47:37.105Z,31.70
2022-10-23T18:50:05.773Z,25.20
2022-10-23T18:52:34.415Z,20.80
2022-10-23T18:55:06.014Z,29.00
2022-10-23T18:57:34.438Z,24.90
2022-10-23T19:00:08.405Z,23.50
2022-10-23T19:02:37.939Z,23.20
2022-10-23T19:05:07.473Z,30.90
2022-10-23T19:07:38.025Z,26.30
2022-10-23T19:10:06.864Z,30.90
2022-10-23T19:12:35.081Z,33.50
2022-10-23T19:15:04.815Z,37.80
2022-10-23T19:17:33.681Z,28.70
2022-10-23T19:20:07.673Z,26.10
2022-10-23T19:22:41.001Z,25.40
2022-10-23T19:25:17.178Z,36.30
2022-10-23T19:27:47.916Z,35.60
2022-10-23T19:30:21.838Z,33.70
2022-10-23T19:35:20.985Z,23.70
2022-10-23T19:37:49.591Z,22.70
2022-10-23T19:40:18.471Z,21.30
2022-10-23T19:42:46.749Z,17.10
2022-10-23T19:45:15.200Z,18.80
2022-10-23T19:47:43.777Z,19.70
2022-10-23T19:50:12.431Z,23.30
2022-10-23T19:52:40.611Z,21.40
2022-10-23T19:55:09.173Z,16.40
2022-10-23T19:57:37.513Z,15.30
2022-10-23T20:00:07.107Z,16.00
2022-10-23T20:02:38.496Z,16.00
2022-10-23T20:05:08.077Z,15.80
2022-10-23T20:07:37.239Z,16.70
2022-10-23T20:10:06.481Z,22.60
2022-10-23T20:12:34.788Z,22.60
2022-10-23T20:15:03.014Z,19.00
2022-10-23T20:17:31.284Z,18.70
2022-10-23T20:19:59.422Z,17.60
2022-10-23T20:22:27.841Z,16.60
2022-10-23T20:24:56.134Z,16.70
2022-10-23T20:27:24.388Z,17.20
2022-10-23T20:29:52.595Z,17.70
2022-10-23T20:32:20.906Z,18.40
2022-10-23T20:34:50.267Z,18.70
2022-10-23T20:37:18.478Z,17.10
2022-10-23T20:39:47.219Z,18.70
2022-10-23T20:42:15.509Z,15.70
2022-10-23T20:44:43.766Z,16.20
2022-10-23T20:47:12.148Z,18.40
2022-10-23T20:49:40.322Z,17.90
2022-10-23T20:52:08.497Z,17.20
2022-10-23T20:54:38.252Z,17.60
2022-10-23T20:57:06.401Z,18.90
2022-10-23T20:59:35.416Z,18.60
2022-10-23T21:02:03.817Z,18.80
2022-10-23T21:04:32.088Z,18.50
2022-10-23T21:07:10.340Z,19.00
2022-10-23T21:09:40.213Z,18.00
2022-10-23T21:12:09.373Z,16.60
2022-10-23T21:14:37.800Z,18.20
2022-10-23T21:17:06.336Z,17.70
2022-10-23T21:19:34.646Z,16.70
2022-10-23T21:22:02.883Z,16.70
2022-10-23T21:24:31.190Z,18.40
2022-10-23T21:26:59.394Z,16.90
2022-10-23T21:29:27.673Z,16.50
2022-10-23T21:31:58.941Z,17.20
2022-10-23T21:34:30.908Z,17.30
2022-10-23T21:37:12.547Z,17.80
2022-10-23T21:39:43.463Z,16.20
2022-10-23T21:42:13.294Z,16.40
2022-10-23T21:44:42.694Z,15.40
2022-10-23T21:47:11.119Z,15.20
2022-10-23T21:49:39.490Z,15.70
2022-10-23T21:52:07.864Z,16.70
2022-10-23T21:54:36.406Z,16.60
2022-10-23T21:57:04.828Z,15.80
2022-10-23T21:59:35.897Z,15.10
2022-10-23T22:02:04.949Z,13.60
2022-10-23T22:04:33.433Z,15.10
2022-10-23T22:07:03.123Z,12.90
2022-10-23T22:09:32.487Z,12.70
2022-10-23T22:12:01.269Z,13.90
2022-10-23T22:14:30.774Z,13.70
2022-10-23T22:16:59.149Z,12.80
2022-10-23T22:19:27.451Z,13.70
2022-10-23T22:21:55.770Z,12.80
2022-10-23T22:24:25.932Z,13.60
2022-10-23T22:26:56.433Z,14.30
2022-10-23T22:29:27.818Z,13.50
2022-10-23T22:31:57.069Z,14.20
2022-10-23T22:37:17.065Z,12.90
2022-10-23T22:39:45.339Z,13.40
2022-10-23T22:42:13.659Z,12.20
2022-10-23T22:44:41.942Z,13.40
2022-10-23T22:47:10.214Z,12.20
2022-10-23T22:49:39.995Z,13.00
2022-10-23T22:52:08.201Z,11.40
2022-10-23T22:54:36.522Z,12.20
2022-10-23T22:57:04.751Z,11.60
2022-10-23T22:59:33.000Z,11.50
2022-10-23T23:02:01.226Z,12.50
2022-10-23T23:04:38.314Z,11.40
2022-10-23T23:07:12.540Z,12.10
2022-10-23T23:09:43.070Z,12.20
2022-10-23T23:12:13.546Z,12.00
2022-10-23T23:14:42.932Z,11.70
2022-10-23T23:17:12.036Z,11.50
2022-10-23T23:19:40.495Z,11.60
2022-10-23T23:22:08.764Z,12.30
2022-10-23T23:24:37.134Z,11.70
2022-10-23T23:27:05.491Z,11.80
2022-10-23T23:29:34.103Z,11.20
2022-10-23T23:32:02.299Z,11.90
2022-10-23T23:34:30.550Z,10.60
2022-10-23T23:36:58.899Z,11.60
2022-10-23T23:39:28.640Z,10.80
2022-10-23T23:41:57.117Z,10.70
2022-10-23T23:44:25.577Z,10.70
2022-10-23T23:46:53.953Z,10.10
2022-10-23T23:49:22.544Z,11.10
2022-10-23T23:51:51.322Z,10.90
2022-10-23T23:54:19.666Z,11.60
2022-10-23T23:56:48.084Z,10.50
2022-10-23T23:59:16.294Z,11.20
